createdAt,value
2023-04-20T05:03:09.673Z,788.00
2023-04-20T05:04:10.720Z,789.00
2023-04-20T05:05:10.242Z,787.00
2023-04-20T05:06:09.556Z,786.00
2023-04-20T05:07:09.621Z,789.00
2023-04-20T05:08:09.617Z,786.00
2023-04-20T05:09:09.634Z,785.00
2023-04-20T05:10:09.637Z,784.00
2023-04-20T05:11:10.713Z,788.00
2023-04-20T05:12:10.788Z,787.00
2023-04-20T05:13:10.798Z,789.00
2023-04-20T05:14:09.832Z,786.00
2023-04-20T05:15:09.851Z,786.00
2023-04-20T05:16:09.899Z,786.00
2023-04-20T05:17:09.892Z,787.00
2023-04-20T05:18:09.927Z,783.00
2023-04-20T05:19:10.039Z,783.00
2023-04-20T05:20:10.912Z,781.00
2023-04-20T05:21:09.913Z,781.00
2023-04-20T05:22:10.910Z,778.00
2023-04-20T05:23:09.900Z,776.00
2023-04-20T05:24:09.932Z,777.00
2023-04-20T05:25:11.631Z,778.00
2023-04-20T05:26:10.897Z,780.00
2023-04-20T05:27:09.903Z,780.00
2023-04-20T05:28:10.875Z,779.00
2023-04-20T05:29:09.907Z,780.00
2023-04-20T05:30:20.224Z,780.00
2023-04-20T05:31:10.863Z,779.00
2023-04-20T05:32:11.003Z,779.00
2023-04-20T05:33:10.870Z,778.00
2023-04-20T05:34:10.864Z,779.00
2023-04-20T05:35:10.989Z,780.00
2023-04-20T05:36:10.846Z,779.00
2023-04-20T05:37:09.824Z,777.00
2023-04-20T05:38:10.817Z,777.00
2023-04-20T05:39:10.806Z,773.00
2023-04-20T05:40:09.794Z,775.00
2023-04-20T05:41:10.801Z,773.00
2023-04-20T05:42:09.799Z,776.00
2023-04-20T05:43:10.767Z,777.00
2023-04-20T05:44:09.765Z,776.00
2023-04-20T05:45:10.770Z,775.00
2023-04-20T05:46:10.783Z,775.00
2023-04-20T05:47:10.742Z,773.00
2023-04-20T05:48:09.744Z,774.00
2023-04-20T05:49:10.749Z,775.00
2023-04-20T05:50:10.758Z,776.00
2023-04-20T05:51:09.739Z,774.00
2023-04-20T05:52:10.706Z,775.00
2023-04-20T05:53:09.714Z,777.00
2023-04-20T05:54:10.688Z,771.00
2023-04-20T05:55:10.703Z,770.00
2023-04-20T05:56:10.710Z,767.00
2023-04-20T05:57:10.689Z,765.00
2023-04-20T05:58:10.667Z,766.00
2023-04-20T05:59:10.661Z,766.00
2023-04-20T06:00:10.685Z,766.00
2023-04-20T06:01:09.665Z,766.00
2023-04-20T06:02:11.073Z,768.00
2023-04-20T06:03:09.904Z,857.00
2023-04-20T06:05:09.875Z,857.00
2023-04-20T06:06:10.639Z,862.00
2023-04-20T06:07:09.665Z,937.00
2023-04-20T06:08:10.617Z,949.00
2023-04-20T06:09:09.608Z,971.00
2023-04-20T06:10:09.630Z,1017.00
2023-04-20T06:11:10.689Z,1034.00
2023-04-20T06:12:10.702Z,1054.00
2023-04-20T06:13:10.725Z,1098.00
2023-04-20T06:14:10.748Z,1117.00
2023-04-20T06:15:10.914Z,1124.00
2023-04-20T06:16:11.055Z,1136.00
2023-04-20T06:17:10.804Z,1178.00
2023-04-20T06:18:10.979Z,1195.00
2023-04-20T06:19:11.179Z,1201.00
2023-04-20T06:20:10.891Z,1211.00
2023-04-20T06:21:10.860Z,1247.00
2023-04-20T06:22:10.807Z,1262.00
2023-04-20T06:23:10.846Z,1269.00
2023-04-20T06:24:09.820Z,1286.00
2023-04-20T06:25:10.800Z,1301.00
2023-04-20T06:26:09.809Z,1313.00
2023-04-20T06:27:10.818Z,1327.00
2023-04-20T06:28:10.901Z,1342.00
2023-04-20T06:29:10.809Z,1353.00
2023-04-20T06:30:10.796Z,1364.00
2023-04-20T06:31:09.871Z,1374.00
2023-04-20T06:32:10.833Z,1397.00
2023-04-20T06:33:12.462Z,1429.00
2023-04-20T06:34:11.073Z,1439.00
2023-04-20T06:35:11.091Z,1445.00
2023-04-20T06:36:11.100Z,1451.00
2023-04-20T06:37:11.488Z,1466.00
2023-04-20T06:38:10.112Z,1502.00
2023-04-20T06:39:11.193Z,1591.00
2023-04-20T06:40:10.202Z,1568.00
2023-04-20T06:41:11.246Z,1571.00
2023-04-20T06:42:11.256Z,1578.00
2023-04-20T06:43:11.265Z,1595.00
2023-04-20T06:44:10.231Z,1615.00
2023-04-20T06:45:11.241Z,1711.00
2023-04-20T06:46:11.301Z,1708.00
2023-04-20T06:47:11.313Z,1710.00
2023-04-20T06:48:23.982Z,1717.00
2023-04-20T06:49:11.395Z,1747.00
2023-04-20T06:50:11.376Z,1806.00
2023-04-20T06:51:11.352Z,1829.00
2023-04-20T06:52:11.476Z,1824.00
2023-04-20T06:53:11.331Z,1831.00
2023-04-20T06:54:10.339Z,1828.00
2023-04-20T06:55:10.374Z,1834.00
2023-04-20T06:56:11.325Z,1868.00
2023-04-20T06:57:10.461Z,1877.00
2023-04-20T06:58:10.380Z,1890.00
2023-04-20T06:59:10.301Z,1906.00
2023-04-20T07:00:11.300Z,1915.00
2023-04-20T07:01:10.360Z,1929.00
2023-04-20T07:02:11.499Z,1947.00
2023-04-20T07:03:11.450Z,1966.00
2023-04-20T07:04:11.346Z,1967.00
2023-04-20T07:05:11.273Z,1965.00
2023-04-20T07:06:11.243Z,1946.00
2023-04-20T07:07:11.266Z,1937.00
2023-04-20T07:08:11.252Z,1942.00
2023-04-20T07:09:11.236Z,1946.00
2023-04-20T07:10:11.229Z,1939.00
2023-04-20T07:11:10.259Z,1931.00
2023-04-20T07:12:11.233Z,1926.00
2023-04-20T07:13:11.235Z,1925.00
2023-04-20T07:14:10.184Z,1920.00
2023-04-20T07:15:11.213Z,1915.00
2023-04-20T07:16:10.294Z,1910.00
2023-04-20T07:17:10.186Z,1906.00
2023-04-20T07:18:10.221Z,1899.00
2023-04-20T07:19:10.162Z,1893.00
2023-04-20T07:20:11.206Z,1888.00
2023-04-20T07:21:11.166Z,1887.00
2023-04-20T07:22:11.156Z,1890.00
2023-04-20T07:23:10.137Z,1884.00
2023-04-20T07:24:10.135Z,1881.00
2023-04-20T07:25:10.133Z,1877.00
2023-04-20T07:26:11.130Z,1880.00
2023-04-20T07:27:11.134Z,1882.00
2023-04-20T07:28:11.101Z,1888.00
2023-04-20T07:29:11.114Z,1889.00
2023-04-20T07:30:12.240Z,1886.00
2023-04-20T07:31:11.184Z,1884.00
2023-04-20T07:32:11.270Z,1885.00
2023-04-20T07:33:11.341Z,1879.00
2023-04-20T07:34:10.291Z,1878.00
2023-04-20T07:35:10.451Z,1876.00
2023-04-20T07:37:29.774Z,1871.00
2023-04-20T07:38:30.732Z,1868.00
2023-04-20T07:39:29.721Z,1870.00
2023-04-20T07:40:30.719Z,1870.00
2023-04-20T07:41:30.706Z,1868.00
2023-04-20T07:42:30.752Z,1865.00
2023-04-20T07:43:29.710Z,1865.00
2023-04-20T07:44:30.855Z,1904.00
2023-04-20T07:45:30.734Z,1859.00
2023-04-20T07:46:30.691Z,1862.00
2023-04-20T07:47:30.713Z,1858.00
2023-04-20T07:48:30.743Z,1862.00
2023-04-20T07:49:29.822Z,1871.00
2023-04-20T07:50:30.870Z,1884.00
2023-04-20T07:51:31.446Z,1890.00
2023-04-20T07:52:29.969Z,1900.00
2023-04-20T07:53:31.024Z,1913.00
2023-04-20T07:54:31.054Z,1925.00
2023-04-20T07:55:30.100Z,1941.00
2023-04-20T07:56:31.145Z,1952.00
2023-04-20T07:57:30.198Z,1962.00
2023-04-20T07:58:31.250Z,1973.00
2023-04-20T07:59:31.271Z,1998.00
2023-04-20T08:00:30.297Z,2008.00
2023-04-20T08:01:30.345Z,2013.00
2023-04-20T08:02:31.474Z,2019.00
2023-04-20T08:03:30.628Z,2021.00
2023-04-20T08:04:31.760Z,2027.00
2023-04-20T08:05:31.671Z,2031.00
2023-04-20T08:06:30.593Z,2029.00
2023-04-20T08:07:31.617Z,2032.00
2023-04-20T08:08:31.674Z,2033.00
2023-04-20T08:09:31.710Z,2034.00
2023-04-20T08:10:30.723Z,2038.00
2023-04-20T08:11:30.787Z,2043.00
2023-04-20T08:12:31.838Z,2043.00
2023-04-20T08:13:31.863Z,2048.00
2023-04-20T08:14:31.937Z,2045.00
2023-04-20T08:15:32.052Z,2048.00
2023-04-20T08:16:31.131Z,2051.00
2023-04-20T08:17:32.070Z,2058.00
2023-04-20T08:18:32.344Z,2059.00
2023-04-20T08:19:32.099Z,2061.00
2023-04-20T08:21:31.182Z,2063.00
2023-04-20T08:22:32.219Z,2065.00
2023-04-20T08:23:32.263Z,2064.00
2023-04-20T08:24:31.302Z,2068.00
2023-04-20T08:25:32.345Z,2070.00
2023-04-20T08:26:32.382Z,2071.00
2023-04-20T08:27:31.426Z,2074.00
2023-04-20T08:28:33.825Z,2069.00
2023-04-20T08:29:31.465Z,2072.00
2023-04-20T08:30:32.492Z,2072.00
2023-04-20T08:31:32.550Z,2076.00
2023-04-20T08:32:32.526Z,2077.00
2023-04-20T08:33:31.421Z,2070.00
2023-04-20T08:34:32.415Z,2072.00
2023-04-20T08:35:32.414Z,2074.00
2023-04-20T08:36:32.437Z,2074.00
2023-04-20T08:37:33.173Z,2072.00
2023-04-20T08:38:34.053Z,2072.00
2023-04-20T08:39:32.391Z,2069.00
2023-04-20T08:40:32.377Z,2068.00
2023-04-20T08:41:31.382Z,2069.00
2023-04-20T08:42:32.469Z,2066.00
2023-04-20T08:43:31.355Z,2065.00
2023-04-20T08:44:32.383Z,2065.00
2023-04-20T08:45:32.383Z,2067.00
2023-04-20T08:46:32.610Z,2068.00
2023-04-20T08:47:32.414Z,2067.00
2023-04-20T08:48:33.644Z,2069.00
2023-04-20T08:49:31.337Z,2071.00
2023-04-20T08:50:32.353Z,2069.00
2023-04-20T08:51:32.389Z,2068.00
2023-04-20T08:52:31.380Z,2065.00
2023-04-20T08:53:31.402Z,2064.00
2023-04-20T08:54:32.523Z,2079.00
2023-04-20T08:55:32.441Z,2083.00
2023-04-20T08:56:32.454Z,2074.00
2023-04-20T08:57:32.965Z,2069.00
2023-04-20T08:58:31.534Z,2066.00
2023-04-20T08:59:32.598Z,2063.00
2023-04-20T09:00:32.641Z,2057.00
2023-04-20T09:01:35.529Z,2060.00
2023-04-20T09:02:32.795Z,2060.00
2023-04-20T09:03:32.842Z,2059.00
2023-04-20T09:04:32.839Z,2057.00
2023-04-20T09:05:32.715Z,2056.00
2023-04-20T09:06:32.678Z,2050.00
2023-04-20T09:07:32.682Z,2043.00
2023-04-20T09:08:32.670Z,2039.00
2023-04-20T09:09:32.651Z,2038.00
2023-04-20T09:10:32.644Z,2033.00
2023-04-20T09:11:31.624Z,2032.00
2023-04-20T09:12:31.628Z,2033.00
2023-04-20T09:13:32.638Z,2030.00
2023-04-20T09:14:31.656Z,2028.00
2023-04-20T09:15:31.618Z,2021.00
2023-04-20T09:16:32.675Z,2017.00
2023-04-20T09:17:32.645Z,2016.00
2023-04-20T09:18:32.613Z,2014.00
2023-04-20T09:19:32.605Z,2016.00
2023-04-20T09:20:31.586Z,2015.00
2023-04-20T09:21:31.599Z,2009.00
2023-04-20T09:22:31.593Z,2005.00
2023-04-20T09:23:32.616Z,2000.00
2023-04-20T09:24:31.683Z,2001.00
2023-04-20T09:25:32.709Z,1999.00
2023-04-20T09:26:31.762Z,1997.00
2023-04-20T09:27:32.801Z,1993.00
2023-04-20T09:28:32.834Z,1994.00
2023-04-20T09:29:31.870Z,1991.00
2023-04-20T09:30:32.930Z,1989.00
2023-04-20T09:31:33.028Z,1991.00
2023-04-20T09:32:32.079Z,1988.00
2023-04-20T09:33:32.081Z,1988.00
2023-04-20T09:34:32.160Z,1987.00
2023-04-20T09:35:32.173Z,1983.00
2023-04-20T09:36:33.219Z,1979.00
2023-04-20T09:37:32.273Z,1980.00
2023-04-20T09:38:32.330Z,1980.00
2023-04-20T09:39:33.359Z,1983.00
2023-04-20T09:40:32.416Z,1978.00
2023-04-20T09:41:33.496Z,1980.00
2023-04-20T09:42:33.503Z,1977.00
2023-04-20T09:43:33.555Z,1980.00
2023-04-20T09:44:33.629Z,1975.00
2023-04-20T09:45:33.682Z,1975.00
2023-04-20T09:46:32.752Z,1970.00
2023-04-20T09:47:34.495Z,1965.00
2023-04-20T09:48:33.800Z,1960.00
2023-04-20T09:49:32.885Z,1958.00
2023-04-20T09:50:45.712Z,1953.00
2023-04-20T09:51:33.924Z,1950.00
2023-04-20T09:52:33.975Z,1951.00
2023-04-20T09:53:33.894Z,1952.00
2023-04-20T09:54:32.878Z,1949.00
2023-04-20T09:55:33.900Z,1949.00
2023-04-20T09:56:33.888Z,1949.00
2023-04-20T09:57:33.892Z,1948.00
2023-04-20T09:58:33.869Z,1942.00
2023-04-20T09:59:33.860Z,1936.00
2023-04-20T10:00:32.851Z,1939.00
2023-04-20T10:01:33.888Z,1937.00
2023-04-20T10:02:34.059Z,1941.00
2023-04-20T10:03:34.096Z,1939.00
2023-04-20T10:04:33.138Z,1937.00
2023-04-20T10:05:34.044Z,1936.00
2023-04-20T10:06:34.124Z,1933.00
2023-04-20T10:07:34.159Z,1930.00
2023-04-20T10:08:34.201Z,1927.00
2023-04-20T10:09:34.259Z,1924.00
2023-04-20T10:10:33.296Z,1921.00
2023-04-20T10:11:48.811Z,1920.00
2023-04-20T10:12:34.336Z,1914.00
2023-04-20T10:13:34.335Z,1913.00
2023-04-20T10:14:33.324Z,1916.00
2023-04-20T10:15:34.321Z,1910.00
2023-04-20T10:16:34.382Z,1909.00
2023-04-20T10:17:34.431Z,1907.00
2023-04-20T10:18:33.463Z,1900.00
2023-04-20T10:19:34.280Z,1895.00
2023-04-20T10:20:34.287Z,1894.00
2023-04-20T10:21:34.266Z,1892.00
2023-04-20T10:22:34.328Z,1886.00
2023-04-20T10:23:33.276Z,1885.00
2023-04-20T10:24:34.267Z,1879.00
2023-04-20T10:25:34.236Z,1878.00
2023-04-20T10:26:33.249Z,1876.00
2023-04-20T10:27:34.235Z,1876.00
2023-04-20T10:28:34.235Z,1875.00
2023-04-20T10:29:35.906Z,1875.00
2023-04-20T10:30:33.222Z,1873.00
2023-04-20T10:31:34.309Z,1872.00
2023-04-20T10:32:33.259Z,1868.00
2023-04-20T10:33:34.178Z,1869.00
2023-04-20T10:34:33.215Z,1867.00
2023-04-20T10:35:34.179Z,1864.00
2023-04-20T10:36:33.219Z,1863.00
2023-04-20T10:37:33.480Z,1858.00
2023-04-20T10:38:33.164Z,1857.00
2023-04-20T10:39:34.142Z,1859.00
2023-04-20T10:40:33.192Z,1862.00
2023-04-20T10:41:33.135Z,1865.00
2023-04-20T10:42:34.490Z,1865.00
2023-04-20T10:43:33.153Z,1862.00
2023-04-20T10:44:33.116Z,1858.00
2023-04-20T10:45:34.108Z,1856.00
2023-04-20T10:46:34.216Z,1851.00
2023-04-20T10:47:34.486Z,1846.00
2023-04-20T10:48:33.088Z,1847.00
2023-04-20T10:49:34.084Z,1847.00
2023-04-20T10:50:34.077Z,1849.00
2023-04-20T10:51:34.069Z,1845.00
2023-04-20T10:52:34.077Z,1850.00
2023-04-20T10:53:34.057Z,1850.00
2023-04-20T10:54:34.093Z,1850.00
2023-04-20T10:55:34.095Z,1855.00
2023-04-20T10:56:33.133Z,1853.00
2023-04-20T10:57:34.186Z,1850.00
2023-04-20T10:58:33.240Z,1845.00
2023-04-20T10:59:34.289Z,1844.00
2023-04-20T11:00:33.341Z,1848.00
2023-04-20T11:01:34.451Z,1848.00
2023-04-20T11:02:34.565Z,1848.00
2023-04-20T11:03:34.731Z,1845.00
2023-04-20T11:04:33.607Z,1840.00
2023-04-20T11:05:33.658Z,1838.00
2023-04-20T11:06:34.651Z,1837.00
2023-04-20T11:07:34.710Z,1832.00
2023-04-20T11:08:34.763Z,1825.00
2023-04-20T11:09:34.809Z,1826.00
2023-04-20T11:10:34.889Z,1817.00
2023-04-20T11:11:34.910Z,1815.00
2023-04-20T11:12:34.967Z,1815.00
2023-04-20T11:13:35.006Z,1810.00
2023-04-20T11:14:35.070Z,1806.00
2023-04-20T11:15:34.114Z,1805.00
2023-04-20T11:16:48.032Z,1805.00
2023-04-20T11:17:35.312Z,1801.00
2023-04-20T11:18:34.143Z,1798.00
2023-04-20T11:19:35.152Z,1800.00
2023-04-20T11:20:35.123Z,1797.00
2023-04-20T11:21:35.139Z,1793.00
2023-04-20T11:22:35.125Z,1788.00
2023-04-20T11:23:34.106Z,1785.00
2023-04-20T11:24:35.116Z,1780.00
2023-04-20T11:25:35.090Z,1778.00
2023-04-20T11:26:35.174Z,1774.00
2023-04-20T11:27:35.121Z,1772.00
2023-04-20T11:28:35.091Z,1770.00
2023-04-20T11:29:35.069Z,1770.00
2023-04-20T11:30:35.066Z,1771.00
2023-04-20T11:31:35.117Z,1771.00
2023-04-20T11:32:35.211Z,1778.00
2023-04-20T11:33:35.102Z,1774.00
2023-04-20T11:34:34.058Z,1777.00
2023-04-20T11:35:35.032Z,1771.00
2023-04-20T11:36:34.033Z,1771.00
2023-04-20T11:37:35.516Z,1770.00
2023-04-20T11:38:35.020Z,1767.00
2023-04-20T11:39:34.001Z,1766.00
2023-04-20T11:40:35.024Z,1764.00
2023-04-20T11:41:35.056Z,1764.00
2023-04-20T11:42:34.185Z,1765.00
2023-04-20T11:43:35.158Z,1762.00
2023-04-20T11:44:35.192Z,1761.00
2023-04-20T11:45:36.310Z,1759.00
2023-04-20T11:46:34.410Z,1754.00
2023-04-20T11:47:34.507Z,1755.00
2023-04-20T11:48:35.480Z,1752.00
2023-04-20T11:49:35.541Z,1753.00
2023-04-20T11:50:35.606Z,1754.00
2023-04-20T11:51:34.635Z,1749.00
2023-04-20T11:52:35.723Z,1746.00
2023-04-20T11:53:35.740Z,1743.00
2023-04-20T11:54:35.792Z,1741.00
2023-04-20T11:55:35.840Z,1741.00
2023-04-20T11:56:34.915Z,1737.00
2023-04-20T11:57:34.951Z,1738.00
2023-04-20T11:58:35.145Z,1739.00
2023-04-20T11:59:36.053Z,1738.00
2023-04-20T12:00:35.113Z,1741.00
2023-04-20T12:01:35.172Z,1743.00
2023-04-20T12:02:36.355Z,1738.00
2023-04-20T12:03:36.418Z,1743.00
2023-04-20T12:04:36.700Z,1750.00
2023-04-20T12:05:36.476Z,1754.00
2023-04-20T12:06:36.451Z,1754.00
2023-04-20T12:07:36.510Z,1754.00
2023-04-20T12:08:35.563Z,1747.00
2023-04-20T12:09:36.619Z,1749.00
2023-04-20T12:10:36.687Z,1751.00
2023-04-20T12:11:36.768Z,1750.00
2023-04-20T12:12:36.809Z,1748.00
2023-04-20T12:13:36.842Z,1749.00
2023-04-20T12:14:36.929Z,1747.00
2023-04-20T12:15:36.929Z,1746.00
2023-04-20T12:16:36.230Z,1746.00
2023-04-20T12:17:37.072Z,1746.00
2023-04-20T12:18:37.080Z,1746.00
2023-04-20T12:19:37.110Z,1746.00
2023-04-20T12:20:36.140Z,1747.00
2023-04-20T12:21:37.192Z,1745.00
2023-04-20T12:22:37.228Z,1743.00
2023-04-20T12:23:37.278Z,1741.00
2023-04-20T12:24:37.311Z,1741.00
2023-04-20T12:25:36.363Z,1740.00
2023-04-20T12:26:38.679Z,1735.00
2023-04-20T12:27:36.593Z,1731.00
2023-04-20T12:28:37.631Z,1731.00
2023-04-20T12:29:37.686Z,1725.00
2023-04-20T12:30:36.757Z,1738.00
2023-04-20T12:31:37.850Z,1726.00
2023-04-20T12:32:37.820Z,1725.00
2023-04-20T12:33:37.874Z,1720.00
2023-04-20T12:34:36.854Z,1718.00
2023-04-20T12:35:37.901Z,1710.00
2023-04-20T12:36:36.952Z,1700.00
2023-04-20T12:37:36.951Z,1682.00
2023-04-20T12:38:36.974Z,1640.00
2023-04-20T12:39:36.996Z,1605.00
2023-04-20T12:40:38.037Z,1592.00
2023-04-20T12:41:37.080Z,1590.00
2023-04-20T12:42:38.140Z,1580.00
2023-04-20T12:43:37.205Z,1570.00
2023-04-20T12:44:38.229Z,1564.00
2023-04-20T12:45:38.309Z,1562.00
2023-04-20T12:46:37.420Z,1563.00
2023-04-20T12:47:37.484Z,1563.00
2023-04-20T12:48:37.478Z,1559.00
2023-04-20T12:49:38.507Z,1548.00
2023-04-20T12:50:37.567Z,1539.00
2023-04-20T12:51:38.633Z,1534.00
2023-04-20T12:52:38.694Z,1532.00
2023-04-20T12:53:37.730Z,1536.00
2023-04-20T12:54:38.791Z,1541.00
2023-04-20T12:55:37.826Z,1544.00
2023-04-20T12:56:37.898Z,1544.00
2023-04-20T12:57:37.991Z,1541.00
2023-04-20T12:58:38.027Z,1536.00
2023-04-20T12:59:38.044Z,1535.00
2023-04-20T13:00:38.154Z,1531.00
2023-04-20T13:01:39.149Z,1528.00
2023-04-20T13:02:38.604Z,1521.00
2023-04-20T13:03:38.400Z,1525.00
2023-04-20T13:04:39.378Z,1520.00
2023-04-20T13:05:39.349Z,1518.00
2023-04-20T13:06:39.406Z,1511.00
2023-04-20T13:07:39.458Z,1510.00
2023-04-20T13:08:39.480Z,1514.00
2023-04-20T13:09:38.515Z,1510.00
2023-04-20T13:10:38.509Z,1507.00
2023-04-20T13:11:39.534Z,1504.00
2023-04-20T13:12:39.584Z,1501.00
2023-04-20T13:13:38.618Z,1497.00
2023-04-20T13:14:39.614Z,1492.00
2023-04-20T13:15:39.677Z,1490.00
2023-04-20T13:16:39.763Z,1490.00
2023-04-20T13:17:39.830Z,1486.00
2023-04-20T13:18:39.753Z,1482.00
2023-04-20T13:19:39.805Z,1482.00
2023-04-20T13:20:38.878Z,1485.00
2023-04-20T13:21:39.908Z,1481.00
2023-04-20T13:22:47.004Z,1477.00
2023-04-20T13:23:39.980Z,1472.00
2023-04-20T13:24:38.919Z,1469.00
2023-04-20T13:25:39.908Z,1463.00
2023-04-20T13:26:39.916Z,1460.00
2023-04-20T13:27:39.903Z,1456.00
2023-04-20T13:28:38.884Z,1457.00
2023-04-20T13:29:38.872Z,1457.00
2023-04-20T13:30:38.874Z,1461.00
2023-04-20T13:31:38.873Z,1456.00
2023-04-20T13:32:39.947Z,1458.00
2023-04-20T13:33:39.933Z,1454.00
2023-04-20T13:34:39.877Z,1453.00
2023-04-20T13:35:39.835Z,1453.00
2023-04-20T13:36:38.818Z,1455.00
2023-04-20T13:37:39.329Z,1451.00
2023-04-20T13:38:38.836Z,1447.00
2023-04-20T13:39:39.811Z,1443.00
2023-04-20T13:40:39.810Z,1436.00
2023-04-20T13:41:38.804Z,1434.00
2023-04-20T13:42:39.798Z,1433.00
2023-04-20T13:43:38.788Z,1436.00
2023-04-20T13:44:39.789Z,1433.00
2023-04-20T13:45:39.821Z,1431.00
2023-04-20T13:46:39.776Z,1431.00
2023-04-20T13:47:38.858Z,1430.00
2023-04-20T13:48:39.756Z,1428.00
2023-04-20T13:49:38.885Z,1427.00
2023-04-20T13:50:39.747Z,1425.00
2023-04-20T13:51:38.735Z,1424.00
2023-04-20T13:52:39.727Z,1426.00
2023-04-20T13:53:39.728Z,1424.00
2023-04-20T13:54:39.713Z,1424.00
2023-04-20T13:55:39.719Z,1425.00
2023-04-20T13:56:38.697Z,1423.00
2023-04-20T13:57:39.677Z,1424.00
2023-04-20T13:58:39.686Z,1422.00
2023-04-20T13:59:39.671Z,1424.00
2023-04-20T14:00:39.714Z,1423.00
2023-04-20T14:01:39.822Z,1420.00
2023-04-20T14:02:39.843Z,1416.00
2023-04-20T14:03:38.909Z,1414.00
2023-04-20T14:04:39.846Z,1416.00
2023-04-20T14:05:39.843Z,1416.00
2023-04-20T14:06:38.799Z,1416.00
2023-04-20T14:07:39.849Z,1416.00
2023-04-20T14:08:39.862Z,1419.00
2023-04-20T14:09:39.874Z,1418.00
2023-04-20T14:10:39.927Z,1414.00
2023-04-20T14:11:38.983Z,1409.00
2023-04-20T14:12:40.016Z,1407.00
2023-04-20T14:13:40.091Z,1401.00
2023-04-20T14:14:40.100Z,1403.00
2023-04-20T14:15:40.260Z,1407.00
2023-04-20T14:16:40.142Z,1408.00
2023-04-20T14:17:39.198Z,1408.00
2023-04-20T14:18:39.186Z,1406.00
2023-04-20T14:19:39.193Z,1402.00
2023-04-20T14:20:39.182Z,1396.00
2023-04-20T14:21:40.225Z,1385.00
2023-04-20T14:22:40.178Z,1375.00
2023-04-20T14:23:40.209Z,1364.00
2023-04-20T14:24:39.213Z,1357.00
2023-04-20T14:25:39.249Z,1355.00
2023-04-20T14:26:39.229Z,1366.00
2023-04-20T14:27:40.233Z,1374.00
2023-04-20T14:28:40.234Z,1379.00
2023-04-20T14:29:39.228Z,1384.00
2023-04-20T14:30:39.213Z,1391.00
2023-04-20T14:31:39.233Z,1395.00
2023-04-20T14:32:39.284Z,1403.00
2023-04-20T14:33:40.234Z,1401.00
2023-04-20T14:34:40.234Z,1402.00
2023-04-20T14:35:40.227Z,1403.00
2023-04-20T14:36:39.238Z,1402.00
2023-04-20T14:37:40.270Z,1405.00
2023-04-20T14:38:40.267Z,1405.00
2023-04-20T14:39:40.226Z,1405.00
2023-04-20T14:40:40.230Z,1407.00
2023-04-20T14:41:40.242Z,1407.00
2023-04-20T14:42:40.245Z,1408.00
2023-04-20T14:43:39.276Z,1409.00
2023-04-20T14:44:39.248Z,1411.00
2023-04-20T14:45:40.255Z,1413.00
2023-04-20T14:46:40.153Z,1410.00
2023-04-20T14:47:40.296Z,1407.00
2023-04-20T14:48:40.267Z,1410.00
2023-04-20T14:49:39.258Z,1408.00
2023-04-20T14:50:39.238Z,1411.00
2023-04-20T14:51:40.237Z,1410.00
2023-04-20T14:52:39.236Z,1414.00
2023-04-20T14:53:39.220Z,1412.00
2023-04-20T14:54:40.208Z,1414.00
2023-04-20T14:55:39.197Z,1414.00
2023-04-20T14:56:39.193Z,1410.00
2023-04-20T14:57:39.175Z,1411.00
2023-04-20T14:58:40.183Z,1413.00
2023-04-20T14:59:40.166Z,1413.00
2023-04-20T15:00:40.161Z,1413.00
2023-04-20T15:01:51.389Z,1413.00
2023-04-20T15:02:40.314Z,1414.00
2023-04-20T15:03:39.308Z,1414.00
2023-04-20T15:04:40.211Z,1415.00
2023-04-20T15:05:40.275Z,1412.00
2023-04-20T15:06:39.115Z,1410.00
2023-04-20T15:07:39.131Z,1408.00
2023-04-20T15:08:40.113Z,1410.00
2023-04-20T15:09:40.128Z,1414.00
2023-04-20T15:10:39.095Z,1412.00
2023-04-20T15:11:39.096Z,1416.00
2023-04-20T15:12:40.076Z,1414.00
2023-04-20T15:13:40.232Z,1414.00
2023-04-20T15:14:39.076Z,1403.00
2023-04-20T15:15:48.376Z,1404.00
2023-04-20T15:16:40.100Z,1408.00
2023-04-20T15:17:39.069Z,1412.00
2023-04-20T15:18:40.058Z,1413.00
2023-04-20T15:19:39.054Z,1416.00
2023-04-20T15:20:40.575Z,1414.00
2023-04-20T15:21:40.733Z,1416.00
2023-04-20T15:22:40.036Z,1413.00
2023-04-20T15:23:40.008Z,1417.00
2023-04-20T15:24:40.078Z,1414.00
2023-04-20T15:25:40.158Z,1411.00
2023-04-20T15:26:40.161Z,1411.00
2023-04-20T15:27:40.199Z,1409.00
2023-04-20T15:28:39.254Z,1406.00
2023-04-20T15:29:40.290Z,1406.00
